Time;durP1;ratioP1;P1;durP2;ratioP2;P2;SDS_P1;SDS_P2;PMS_P1;PMS_P2;Temp;Humidity;BMP_temperature;BMP_pressure;BME280_temperature;BME280_humidity;BME280_pressure;Samples;Min_cycle;Max_cycle;Signal;HPM_P1;HPM_P2
2022/09/15 00:01:25;;;;;;;1.52;0.50;;;22.60;99.00;;;;;;5033540;28;20092;-26
2022/09/15 00:03:51;;;;;;;1.73;0.90;;;22.60;98.90;;;;;;5033353;28;20112;-26
2022/09/15 00:06:17;;;;;;;2.03;0.70;;;22.60;99.00;;;;;;5034406;28;20109;-26
2022/09/15 00:08:43;;;;;;;1.42;0.73;;;22.60;99.00;;;;;;5035633;28;20037;-26
2022/09/15 00:11:23;;;;;;;1.45;0.70;;;22.60;99.00;;;;;;5034405;28;20028;-26
2022/09/15 00:13:50;;;;;;;1.23;0.63;;;22.60;99.00;;;;;;5035155;28;20025;-26
2022/09/15 00:16:17;;;;;;;1.38;0.63;;;22.60;99.00;;;;;;5034205;28;20029;-26
2022/09/15 00:18:44;;;;;;;1.85;0.77;;;22.60;99.00;;;;;;5033503;28;20033;-26
2022/09/15 00:21:19;;;;;;;1.60;0.60;;;22.60;99.00;;;;;;5033173;28;20035;-26
2022/09/15 00:23:45;;;;;;;0.98;0.60;;;22.60;99.00;;;;;;5033100;28;20041;-26
2022/09/15 00:26:15;;;;;;;0.95;0.60;;;22.50;99.00;;;;;;5033162;28;20025;-26
2022/09/15 00:28:42;;;;;;;0.98;0.63;;;22.60;99.10;;;;;;5032662;28;20052;-26
2022/09/15 00:31:10;;;;;;;1.27;0.73;;;22.50;99.00;;;;;;5033002;28;20021;-26
2022/09/15 00:33:36;;;;;;;1.40;0.60;;;22.60;99.00;;;;;;5032888;28;20021;-26
2022/09/15 00:36:05;;;;;;;6.40;0.70;;;22.50;99.00;;;;;;5032907;28;20025;-26
2022/09/15 00:38:32;;;;;;;1.55;0.68;;;22.50;99.00;;;;;;5032747;28;20037;-26
2022/09/15 00:40:59;;;;;;;1.67;0.70;;;22.50;99.00;;;;;;5032745;28;20043;-26
2022/09/15 00:43:58;;;;;;;1.58;0.77;;;22.50;99.00;;;;;;5032969;28;20029;-26
2022/09/15 00:46:29;;;;;;;2.08;0.70;;;22.50;99.00;;;;;;5032697;28;20053;-26
2022/09/15 00:49:09;;;;;;;1.67;0.70;;;22.50;99.00;;;;;;5032471;28;20574;-26
2022/09/15 00:51:53;;;;;;;1.48;0.70;;;22.50;99.00;;;;;;5032299;28;20061;-26
2022/09/15 00:54:24;;;;;;;2.78;0.60;;;22.60;99.00;;;;;;5032487;28;20021;-26
2022/09/15 00:56:53;;;;;;;1.40;0.60;;;22.50;98.90;;;;;;5032519;28;20033;-26
2022/09/15 00:59:23;;;;;;;0.77;0.60;;;22.50;99.00;;;;;;5030377;28;20031;-26
2022/09/15 01:01:57;;;;;;;1.25;0.73;;;22.50;99.00;;;;;;5032319;28;20108;-26
2022/09/15 01:04:23;;;;;;;0.93;0.63;;;22.50;99.00;;;;;;5032369;28;20038;-26
2022/09/15 01:06:55;;;;;;;2.33;0.70;;;22.50;99.00;;;;;;5032313;28;20034;-26
2022/09/15 01:09:34;;;;;;;0.90;0.57;;;22.50;99.00;;;;;;5032051;28;20063;-26
2022/09/15 01:12:01;;;;;;;0.88;0.52;;;22.50;99.40;;;;;;5032250;28;20029;-26
2022/09/15 01:14:26;;;;;;;1.60;0.60;;;22.50;99.00;;;;;;5031907;28;20540;-26
2022/09/15 01:17:02;;;;;;;1.75;0.70;;;22.40;99.00;;;;;;5032204;28;20104;-26
2022/09/15 01:19:46;;;;;;;1.80;0.68;;;22.40;99.00;;;;;;5032036;28;20029;-26
2022/09/15 01:22:41;;;;;;;1.77;0.77;;;22.40;99.00;;;;;;5032044;28;20032;-26
2022/09/15 01:25:09;;;;;;;;;;;22.40;99.00;;;;;;5032403;28;20026;-26
2022/09/15 01:27:38;;;;;;;2.47;0.50;;;22.40;99.00;;;;;;5031950;28;19916;-26
2022/09/15 01:30:22;;;;;;;0.77;0.45;;;22.40;99.00;;;;;;5031831;28;20045;-26
2022/09/15 01:33:03;;;;;;;;;;;22.40;99.00;;;;;;5032479;28;20033;-26
2022/09/15 01:35:55;;;;;;;1.02;0.70;;;22.40;99.10;;;;;;5031911;28;19968;-26
2022/09/15 01:38:55;;;;;;;1.08;0.57;;;22.40;99.00;;;;;;5031859;28;20483;-26
2022/09/15 01:41:44;;;;;;;1.73;0.80;;;22.40;99.00;;;;;;5029618;28;20045;-26
2022/09/15 01:44:14;;;;;;;2.30;0.60;;;22.40;99.00;;;;;;5026460;28;20046;-26
2022/09/15 01:46:46;;;;;;;2.42;0.60;;;22.40;99.00;;;;;;5032030;28;20044;-26
2022/09/15 01:49:21;;;;;;;0.85;0.70;;;22.40;99.00;;;;;;5031633;28;20079;-26
2022/09/15 01:51:50;;;;;;;1.80;0.80;;;22.40;99.00;;;;;;5031739;28;20024;-26
2022/09/15 01:54:23;;;;;;;1.73;0.73;;;22.40;99.00;;;;;;5031696;28;20036;-26
2022/09/15 01:56:49;;;;;;;1.07;0.60;;;22.40;99.00;;;;;;5031910;28;20064;-26
2022/09/15 01:59:15;;;;;;;1.23;0.70;;;22.40;99.30;;;;;;5031642;28;20544;-26
2022/09/15 02:01:50;;;;;;;0.98;0.60;;;22.40;99.00;;;;;;5031782;28;20541;-26
2022/09/15 02:04:31;;;;;;;2.33;0.80;;;22.40;99.00;;;;;;5030376;28;20029;-26
2022/09/15 02:07:19;;;;;;;0.82;0.63;;;22.40;99.00;;;;;;5031661;28;20030;-26
2022/09/15 02:09:53;;;;;;;0.95;0.70;;;22.40;99.00;;;;;;5032769;28;20021;-26
2022/09/15 02:12:31;;;;;;;1.65;0.90;;;22.40;99.00;;;;;;5035550;28;20052;-26
2022/09/15 02:15:07;;;;;;;1.13;0.50;;;22.30;99.00;;;;;;5033914;28;20065;-26
2022/09/15 02:17:42;;;;;;;1.45;0.50;;;22.40;99.00;;;;;;5035667;28;20418;-26
2022/09/15 02:20:31;;;;;;;0.68;0.60;;;22.40;99.00;;;;;;5035254;28;20410;-26
2022/09/15 02:23:07;;;;;;;1.92;0.70;;;22.30;98.90;;;;;;5035539;28;20025;-26
2022/09/15 02:25:42;;;;;;;0.52;0.50;;;22.40;99.00;;;;;;5035224;28;20036;-26
2022/09/15 02:28:10;;;;;;;0.85;0.63;;;22.30;99.00;;;;;;5035239;28;20025;-26
2022/09/15 02:30:40;;;;;;;1.00;0.60;;;22.30;99.00;;;;;;5035088;28;20096;-26
2022/09/15 02:33:10;;;;;;;0.98;0.60;;;22.30;99.00;;;;;;5035194;28;20083;-26
2022/09/15 02:35:37;;;;;;;1.88;0.60;;;22.30;99.00;;;;;;5034995;28;20021;-26
2022/09/15 02:38:05;;;;;;;1.30;0.50;;;22.30;99.00;;;;;;5035019;28;20494;-26
2022/09/15 02:40:32;;;;;;;2.55;0.50;;;22.30;99.00;;;;;;5034841;28;20437;-26
2022/09/15 02:43:04;;;;;;;1.23;0.55;;;22.30;99.00;;;;;;5034986;28;20493;-26
2022/09/15 02:45:30;;;;;;;1.15;0.50;;;22.30;99.00;;;;;;5034863;28;20441;-26
2022/09/15 02:47:57;;;;;;;3.35;0.80;;;22.30;99.00;;;;;;5034825;28;20021;-26
2022/09/15 02:50:26;;;;;;;0.75;0.63;;;22.30;99.00;;;;;;5034491;28;20026;-26
2022/09/15 02:52:55;;;;;;;1.00;0.50;;;22.30;99.00;;;;;;5034868;28;20387;-26
2022/09/15 02:55:22;;;;;;;1.00;0.60;;;22.30;99.00;;;;;;5034680;28;20087;-26
2022/09/15 02:57:47;;;;;;;1.42;0.70;;;22.30;99.00;;;;;;5034830;28;20049;-26
2022/09/15 03:00:16;;;;;;;2.55;0.60;;;22.30;99.00;;;;;;5034491;28;20064;-26
2022/09/15 03:02:44;;;;;;;0.90;0.52;;;22.30;99.00;;;;;;5034608;28;20115;-26
2022/09/15 03:05:12;;;;;;;1.10;0.70;;;22.30;99.00;;;;;;5034470;28;20040;-26
2022/09/15 03:07:38;;;;;;;0.77;0.50;;;22.30;99.00;;;;;;5034492;28;20025;-26
2022/09/15 03:10:06;;;;;;;0.98;0.50;;;22.30;99.10;;;;;;5034315;28;20083;-26
2022/09/15 03:12:47;;;;;;;0.70;0.50;;;22.20;99.00;;;;;;5034409;28;20036;-26
2022/09/15 03:15:14;;;;;;;0.82;0.40;;;22.20;99.00;;;;;;5034192;28;20029;-26
2022/09/15 03:17:41;;;;;;;0.60;0.55;;;22.30;99.00;;;;;;5034351;28;20041;-26
2022/09/15 03:20:10;;;;;;;0.90;0.70;;;22.20;99.00;;;;;;5034320;28;20025;-26
2022/09/15 03:22:36;;;;;;;0.47;0.45;;;22.30;99.10;;;;;;5033645;28;20387;-26
2022/09/15 03:25:04;;;;;;;1.65;0.73;;;22.30;99.00;;;;;;5034163;28;20112;-26
2022/09/15 03:27:30;;;;;;;1.08;0.60;;;22.30;99.00;;;;;;5034116;28;20033;-26
2022/09/15 03:29:56;;;;;;;1.52;0.70;;;22.20;99.00;;;;;;5033904;28;20025;-26
2022/09/15 03:32:21;;;;;;;1.33;0.50;;;22.20;99.00;;;;;;5033942;28;20021;-26
2022/09/15 03:34:47;;;;;;;0.95;0.50;;;22.20;99.00;;;;;;5033986;28;20021;-26
2022/09/15 03:37:13;;;;;;;1.05;0.55;;;22.30;99.00;;;;;;5032760;28;20025;-26
2022/09/15 03:39:38;;;;;;;0.93;0.50;;;22.30;99.00;;;;;;5033853;28;20025;-26
2022/09/15 03:42:04;;;;;;;0.70;0.60;;;22.20;99.00;;;;;;5033875;28;20022;-26
2022/09/15 03:44:30;;;;;;;1.20;0.55;;;22.20;99.00;;;;;;5033726;28;20033;-26
2022/09/15 03:46:56;;;;;;;0.65;0.50;;;22.20;99.00;;;;;;5033888;28;20017;-26
2022/09/15 03:49:23;;;;;;;1.02;0.60;;;22.20;99.00;;;;;;5033511;28;20027;-26
2022/09/15 03:51:49;;;;;;;0.80;0.60;;;22.20;99.00;;;;;;5033639;28;20028;-26
2022/09/15 03:54:15;;;;;;;1.20;0.45;;;22.20;99.00;;;;;;5033654;28;20407;-26
2022/09/15 03:56:41;;;;;;;1.02;0.50;;;22.20;99.00;;;;;;5033640;28;20029;-26
2022/09/15 03:59:08;;;;;;;1.27;0.50;;;22.20;99.00;;;;;;5033318;28;20368;-26
2022/09/15 04:01:34;;;;;;;0.90;0.70;;;22.20;99.00;;;;;;5033630;28;20021;-26
2022/09/15 04:04:00;;;;;;;1.67;0.77;;;22.10;99.00;;;;;;5033387;28;20030;-26
2022/09/15 04:06:26;;;;;;;1.02;0.55;;;22.20;99.00;;;;;;5033455;28;20025;-26
2022/09/15 04:08:53;;;;;;;2.13;0.80;;;22.10;99.00;;;;;;5033180;28;20497;-26
2022/09/15 04:11:20;;;;;;;2.67;0.80;;;22.20;99.00;;;;;;5033255;28;20021;-26
2022/09/15 04:13:47;;;;;;;0.90;0.47;;;22.10;99.00;;;;;;5033006;28;20033;-26
2022/09/15 04:16:15;;;;;;;1.27;0.40;;;22.10;99.10;;;;;;5033313;28;20168;-26
2022/09/15 04:18:41;;;;;;;1.40;0.60;;;22.10;99.10;;;;;;5033017;28;20025;-26
2022/09/15 04:21:12;;;;;;;0.75;0.45;;;22.10;99.30;;;;;;5033125;28;20038;-26
2022/09/15 04:23:38;;;;;;;1.42;0.70;;;22.10;99.00;;;;;;5033131;28;20144;-26
2022/09/15 04:26:08;;;;;;;0.85;0.60;;;22.10;99.10;;;;;;5032989;28;20029;-26
2022/09/15 04:28:37;;;;;;;3.15;0.68;;;22.10;99.00;;;;;;5032801;28;20030;-26
2022/09/15 04:31:05;;;;;;;1.35;0.70;;;22.10;99.00;;;;;;5032949;28;20021;-26
2022/09/15 04:33:31;;;;;;;1.08;0.60;;;22.10;99.00;;;;;;5031861;28;20030;-26
2022/09/15 04:35:58;;;;;;;2.45;0.65;;;22.10;99.00;;;;;;5032914;28;20025;-26
2022/09/15 04:38:24;;;;;;;0.93;0.60;;;22.10;99.00;;;;;;5032761;28;20032;-26
2022/09/15 04:40:50;;;;;;;1.35;0.60;;;22.10;99.00;;;;;;5032538;28;20037;-26
2022/09/15 04:43:15;;;;;;;1.52;0.73;;;22.10;99.00;;;;;;5032765;28;20528;-26
2022/09/15 04:45:42;;;;;;;1.05;0.73;;;22.10;99.00;;;;;;5032675;28;20032;-26
2022/09/15 04:48:07;;;;;;;1.00;0.60;;;22.10;99.00;;;;;;5032503;28;20509;-26
2022/09/15 04:50:33;;;;;;;0.82;0.50;;;22.10;99.00;;;;;;5032884;28;20053;-26
2022/09/15 04:52:58;;;;;;;1.17;0.60;;;22.10;99.00;;;;;;5032578;28;20017;-26
2022/09/15 04:55:25;;;;;;;0.47;0.40;;;22.10;99.00;;;;;;5032364;28;20025;-26
2022/09/15 04:57:51;;;;;;;1.42;0.63;;;22.10;99.00;;;;;;5032510;28;20050;-26
2022/09/15 05:00:17;;;;;;;1.10;0.60;;;22.00;99.00;;;;;;5032272;28;20476;-26
2022/09/15 05:02:43;;;;;;;1.20;0.57;;;22.10;99.00;;;;;;5032339;28;20029;-26
2022/09/15 05:05:09;;;;;;;1.10;0.60;;;22.00;99.00;;;;;;5032297;28;20025;-26
2022/09/15 05:07:34;;;;;;;0.50;0.40;;;22.00;99.00;;;;;;5032331;28;20040;-26
2022/09/15 05:10:00;;;;;;;0.70;0.50;;;22.00;99.00;;;;;;5031964;28;20437;-26
2022/09/15 05:12:26;;;;;;;1.20;0.50;;;22.10;99.00;;;;;;5032293;28;20022;-26
2022/09/15 05:14:53;;;;;;;1.20;0.60;;;22.00;99.00;;;;;;5032269;28;20069;-26
2022/09/15 05:17:18;;;;;;;1.02;0.60;;;22.00;99.00;;;;;;5032176;28;20619;-26
2022/09/15 05:19:45;;;;;;;0.85;0.63;;;22.00;99.00;;;;;;5032054;28;20024;-26
2022/09/15 05:22:10;;;;;;;1.33;0.57;;;22.00;99.00;;;;;;5032066;28;20029;-26
2022/09/15 05:24:36;;;;;;;0.95;0.50;;;22.00;99.00;;;;;;5032471;28;20025;-26
2022/09/15 05:27:02;;;;;;;1.42;0.60;;;22.00;99.00;;;;;;5032134;28;20029;-26
2022/09/15 05:29:27;;;;;;;0.70;0.60;;;22.00;99.00;;;;;;5031998;28;20026;-26
2022/09/15 05:31:53;;;;;;;0.80;0.63;;;22.00;99.00;;;;;;5030632;28;20060;-26
2022/09/15 05:34:18;;;;;;;1.10;0.70;;;22.00;99.00;;;;;;5031999;28;20018;-26
2022/09/15 05:36:44;;;;;;;0.85;0.52;;;22.00;99.00;;;;;;5032043;28;20029;-26
2022/09/15 05:39:10;;;;;;;1.83;0.60;;;22.00;99.00;;;;;;5031856;28;20269;-26
2022/09/15 05:41:35;;;;;;;1.00;0.60;;;21.90;99.00;;;;;;5032038;28;20025;-26
2022/09/15 05:44:01;;;;;;;0.60;0.52;;;21.90;99.00;;;;;;5030771;28;20032;-26
2022/09/15 05:46:27;;;;;;;2.08;0.55;;;21.90;99.00;;;;;;5036427;28;20026;-26
2022/09/15 05:48:55;;;;;;;1.05;0.63;;;21.90;99.00;;;;;;5036457;28;20418;-26
2022/09/15 05:51:21;;;;;;;2.05;0.60;;;21.90;99.00;;;;;;5036456;28;20052;-26
2022/09/15 05:53:47;;;;;;;1.02;0.60;;;21.90;99.10;;;;;;5036545;28;20463;-26
2022/09/15 05:56:15;;;;;;;1.48;0.80;;;21.90;99.10;;;;;;5036227;28;20029;-26
2022/09/15 05:58:43;;;;;;;0.93;0.52;;;21.90;99.10;;;;;;5035701;28;20040;-26
2022/09/15 06:01:14;;;;;;;1.08;0.55;;;21.90;99.10;;;;;;5035754;28;20037;-26
2022/09/15 06:03:39;;;;;;;0.80;0.38;;;21.90;99.10;;;;;;5035760;28;20052;-26
2022/09/15 06:06:06;;;;;;;1.63;0.63;;;21.90;99.10;;;;;;5035585;28;20111;-26
2022/09/15 06:08:37;;;;;;;0.50;0.47;;;21.90;99.10;;;;;;5035480;28;20471;-26
2022/09/15 06:11:05;;;;;;;0.50;0.40;;;21.90;99.10;;;;;;5035589;28;20474;-26
2022/09/15 06:13:31;;;;;;;1.33;0.60;;;21.90;99.20;;;;;;5035415;28;20118;-26
2022/09/15 06:16:06;;;;;;;0.80;0.60;;;21.90;99.10;;;;;;5035985;28;20368;-27
2022/09/15 06:18:33;;;;;;;1.05;0.70;;;21.90;99.10;;;;;;5035320;28;20053;-27
2022/09/15 06:21:19;;;;;;;0.70;0.55;;;21.90;99.10;;;;;;5035578;28;20033;-27
2022/09/15 06:23:45;;;;;;;0.50;0.40;;;21.90;99.50;;;;;;5034168;28;20025;-27
2022/09/15 06:26:17;;;;;;;0.45;0.40;;;21.90;99.10;;;;;;5035344;28;20036;-27
2022/09/15 06:28:48;;;;;;;1.75;0.60;;;21.90;99.10;;;;;;5035135;28;20360;-27
2022/09/15 06:31:14;;;;;;;0.77;0.40;;;21.90;99.10;;;;;;5035062;28;20463;-27
2022/09/15 06:33:45;;;;;;;1.10;0.60;;;21.90;99.10;;;;;;5035149;28;20024;-27
2022/09/15 06:36:12;;;;;;;0.55;0.50;;;21.90;99.20;;;;;;5035185;28;20049;-27
2022/09/15 06:38:38;;;;;;;0.70;0.40;;;21.90;99.20;;;;;;5035016;28;20026;-27
2022/09/15 06:41:05;;;;;;;1.60;0.47;;;21.90;99.20;;;;;;5034989;28;20036;-27
2022/09/15 06:43:31;;;;;;;1.38;0.57;;;21.90;99.20;;;;;;5035371;28;20056;-27
2022/09/15 06:46:06;;;;;;;0.93;0.50;;;21.80;99.20;;;;;;5017074;28;20030;-27
2022/09/15 06:48:32;;;;;;;0.73;0.40;;;21.90;99.30;;;;;;5034781;28;20026;-27
2022/09/15 06:50:59;;;;;;;0.75;0.45;;;21.80;99.20;;;;;;5034947;28;20368;-27
2022/09/15 06:53:30;;;;;;;0.75;0.60;;;21.80;99.20;;;;;;5034973;28;20064;-27
2022/09/15 06:56:02;;;;;;;0.52;0.40;;;21.80;99.20;;;;;;5033933;28;20033;-27
2022/09/15 06:58:27;;;;;;;0.60;0.52;;;21.80;99.30;;;;;;5034555;28;20435;-27
2022/09/15 07:00:53;;;;;;;0.60;0.50;;;21.90;99.30;;;;;;5034589;28;20032;-27
2022/09/15 07:03:18;;;;;;;1.25;0.40;;;21.80;99.30;;;;;;5034668;28;20040;-27
2022/09/15 07:05:47;;;;;;;0.70;0.50;;;21.80;99.30;;;;;;5034612;28;20068;-27
2022/09/15 07:08:13;;;;;;;0.80;0.50;;;21.80;99.30;;;;;;5034724;28;20383;-27
2022/09/15 07:10:43;;;;;;;0.70;0.45;;;21.80;99.30;;;;;;5034371;28;20041;-27
2022/09/15 07:13:08;;;;;;;0.68;0.50;;;21.80;99.30;;;;;;5034502;28;20025;-27
2022/09/15 07:15:34;;;;;;;0.70;0.45;;;21.80;99.30;;;;;;5034322;28;20029;-27
2022/09/15 07:17:59;;;;;;;0.80;0.47;;;21.80;99.40;;;;;;5034384;28;20029;-27
2022/09/15 07:20:26;;;;;;;0.65;0.45;;;21.80;99.30;;;;;;5034577;28;20029;-27
2022/09/15 07:22:52;;;;;;;0.70;0.50;;;21.80;99.30;;;;;;5034361;28;20398;-27
2022/09/15 07:25:17;;;;;;;0.80;0.55;;;21.80;99.40;;;;;;5034081;28;20035;-27
2022/09/15 07:27:45;;;;;;;0.80;0.52;;;21.80;99.40;;;;;;5034136;28;20541;-27
2022/09/15 07:30:12;;;;;;;0.57;0.40;;;21.80;99.40;;;;;;5034044;28;20280;-27
2022/09/15 07:32:38;;;;;;;2.58;0.55;;;21.80;99.40;;;;;;5034151;28;20022;-27
2022/09/15 07:35:05;;;;;;;3.70;0.50;;;21.80;99.40;;;;;;5033955;28;20105;-27
2022/09/15 07:37:32;;;;;;;4.53;0.38;;;21.60;99.50;;;;;;5034070;28;20041;-27
2022/09/15 07:39:58;;;;;;;2.55;0.43;;;21.50;99.80;;;;;;5033722;28;20513;-27
2022/09/15 07:42:24;;;;;;;1.17;0.38;;;21.50;99.80;;;;;;5033970;28;20033;-27
2022/09/15 07:44:50;;;;;;;1.52;0.30;;;21.50;99.60;;;;;;5033793;28;20024;-27
2022/09/15 07:47:16;;;;;;;0.98;0.40;;;21.60;99.50;;;;;;5033964;28;20052;-27
2022/09/15 07:49:42;;;;;;;1.23;0.40;;;21.60;99.50;;;;;;5033615;28;20502;-27
2022/09/15 07:52:08;;;;;;;2.08;0.40;;;21.60;99.50;;;;;;5033777;28;20026;-27
2022/09/15 07:54:34;;;;;;;1.75;0.40;;;21.60;99.50;;;;;;5033587;28;20024;-27
2022/09/15 07:57:00;;;;;;;1.05;0.30;;;21.70;99.50;;;;;;5033741;28;20022;-27
2022/09/15 07:59:26;;;;;;;1.35;0.40;;;21.70;99.40;;;;;;5033443;28;20036;-27
2022/09/15 08:01:51;;;;;;;0.45;0.28;;;21.70;99.40;;;;;;5033496;28;20033;-27
2022/09/15 08:04:17;;;;;;;0.63;0.30;;;21.70;99.40;;;;;;5033494;28;20041;-27
2022/09/15 08:06:43;;;;;;;0.70;0.30;;;21.70;99.40;;;;;;5033525;28;20434;-27
2022/09/15 08:09:13;;;;;;;1.08;0.32;;;21.70;99.40;;;;;;5032942;28;20037;-27
2022/09/15 08:11:40;;;;;;;0.57;0.40;;;21.70;99.70;;;;;;5033586;28;20371;-27
2022/09/15 08:14:06;;;;;;;2.20;0.40;;;21.70;99.40;;;;;;5033137;28;20026;-27
2022/09/15 08:16:32;;;;;;;1.55;0.40;;;21.70;99.40;;;;;;5033295;28;20091;-27
2022/09/15 08:18:57;;;;;;;0.52;0.30;;;21.80;99.40;;;;;;5033506;28;20036;-27
2022/09/15 08:21:23;;;;;;;1.65;0.45;;;21.80;99.40;;;;;;5033203;28;20449;-27
2022/09/15 08:23:51;;;;;;;1.23;0.47;;;21.70;99.40;;;;;;5033079;28;20082;-27
2022/09/15 08:26:17;;;;;;;0.82;0.40;;;21.80;99.70;;;;;;5033095;28;20030;-27
2022/09/15 08:28:43;;;;;;;1.35;0.40;;;21.80;99.40;;;;;;5032885;28;20348;-27
2022/09/15 08:31:11;;;;;;;1.23;0.50;;;21.80;99.40;;;;;;5032895;28;20026;-27
2022/09/15 08:33:37;;;;;;;0.93;0.40;;;21.70;99.90;;;;;;5032910;28;20101;-27
2022/09/15 08:36:06;;;;;;;2.33;0.50;;;21.50;99.90;;;;;;5032918;28;20028;-27
2022/09/15 08:38:33;;;;;;;1.75;0.40;;;21.40;99.90;;;;;;5032815;28;20483;-27
2022/09/15 08:41:03;;;;;;;1.23;0.63;;;21.40;99.90;;;;;;5033045;28;20029;-27
2022/09/15 08:43:38;;;;;;;2.55;0.50;;;21.40;99.90;;;;;;5032791;28;20025;-27
2022/09/15 08:46:09;;;;;;;0.82;0.35;;;21.50;99.90;;;;;;5033148;28;20032;-27
2022/09/15 08:48:47;;;;;;;2.60;0.47;;;21.50;99.90;;;;;;5032708;28;20034;-27
2022/09/15 08:51:29;;;;;;;1.00;0.50;;;21.60;99.90;;;;;;5032960;28;20108;-27
2022/09/15 08:54:04;;;;;;;0.77;0.40;;;21.70;99.90;;;;;;5032641;28;20080;-27
2022/09/15 08:56:30;;;;;;;0.80;0.35;;;21.70;99.90;;;;;;5032761;28;20029;-27
2022/09/15 08:58:56;;;;;;;1.10;0.57;;;21.70;99.90;;;;;;5032956;28;20510;-27
2022/09/15 09:01:25;;;;;;;0.45;0.30;;;21.70;99.90;;;;;;5032358;28;20069;-27
2022/09/15 09:04:14;;;;;;;0.63;0.30;;;21.70;99.90;;;;;;5032464;28;20523;-27
2022/09/15 09:06:59;;;;;;;1.13;0.40;;;21.70;99.90;;;;;;5032731;28;20029;-27
2022/09/15 09:10:00;;;;;;;1.20;0.40;;;21.70;99.90;;;;;;5032322;28;20026;-27
2022/09/15 09:12:36;;;;;;;1.65;0.45;;;21.70;99.90;;;;;;5009624;28;20033;-27
2022/09/15 09:15:30;;;;;;;1.55;0.43;;;21.70;99.90;;;;;;5032265;28;20033;-27
2022/09/15 09:18:10;;;;;;;0.63;0.30;;;21.70;99.90;;;;;;5032281;28;20029;-27
2022/09/15 09:20:41;;;;;;;1.00;0.40;;;21.70;99.90;;;;;;5031744;28;20026;-27
2022/09/15 09:23:12;;;;;;;0.85;0.40;;;21.60;99.90;;;;;;5032356;28;20056;-27
2022/09/15 09:25:41;;;;;;;1.65;0.60;;;21.60;99.90;;;;;;5032356;28;20021;-27
2022/09/15 09:28:29;;;;;;;0.98;0.35;;;21.50;99.90;;;;;;5032153;28;20022;-27
2022/09/15 09:31:06;;;;;;;0.90;0.40;;;21.60;99.90;;;;;;5032172;28;20100;-27
2022/09/15 09:33:49;;;;;;;1.25;0.47;;;21.60;99.90;;;;;;5032146;28;20021;-27
2022/09/15 09:36:15;;;;;;;0.60;0.35;;;21.60;99.90;;;;;;5032117;28;20025;-27
2022/09/15 09:38:44;;;;;;;0.73;0.40;;;21.60;99.90;;;;;;5031825;28;20509;-27
2022/09/15 09:41:24;;;;;;;0.55;0.32;;;21.70;99.90;;;;;;5032041;28;20029;-27
2022/09/15 09:43:52;;;;;;;1.02;0.40;;;21.60;99.90;;;;;;5032005;28;20100;-27
2022/09/15 09:46:19;;;;;;;0.52;0.40;;;21.60;99.90;;;;;;5032051;28;20383;-27
2022/09/15 09:49:01;;;;;;;1.10;0.60;;;21.60;99.90;;;;;;5031594;28;20029;-27
2022/09/15 09:51:54;;;;;;;1.10;0.40;;;21.60;99.90;;;;;;5031749;28;20552;-27
2022/09/15 09:54:21;;;;;;;0.45;0.45;;;21.60;99.90;;;;;;5031864;28;20022;-27
2022/09/15 09:56:51;;;;;;;0.88;0.50;;;21.60;99.90;;;;;;5031791;28;20502;-27
2022/09/15 09:59:38;;;;;;;0.38;0.30;;;21.70;99.90;;;;;;5031915;28;20041;-27
2022/09/15 10:02:26;;;;;;;0.93;0.50;;;21.70;99.90;;;;;;5031719;28;20049;-27
2022/09/15 10:05:01;;;;;;;1.55;0.30;;;21.70;99.90;;;;;;5031813;28;20388;-27
2022/09/15 10:07:27;;;;;;;0.98;0.47;;;21.70;99.90;;;;;;5031694;28;20032;-27
2022/09/15 10:09:58;;;;;;;0.22;0.20;;;21.70;99.90;;;;;;5031583;28;20156;-27
2022/09/15 10:12:28;;;;;;;0.80;0.40;;;21.70;99.90;;;;;;5031861;28;20034;-27
2022/09/15 10:14:58;;;;;;;0.80;0.30;;;21.70;99.90;;;;;;5030302;28;20090;-27
2022/09/15 10:17:36;;;;;;;0.80;0.40;;;21.70;99.90;;;;;;5031565;28;20057;-27
2022/09/15 10:20:04;;;;;;;0.88;0.30;;;21.80;99.90;;;;;;5031487;28;20022;-27
2022/09/15 10:22:33;;;;;;;0.47;0.22;;;21.70;99.90;;;;;;5031446;28;20014;-27
2022/09/15 10:25:01;;;;;;;1.98;0.40;;;21.70;99.90;;;;;;5031479;28;20021;-27
2022/09/15 10:27:29;;;;;;;0.73;0.30;;;21.60;99.90;;;;;;5031614;28;20471;-27
2022/09/15 10:30:00;;;;;;;0.63;0.32;;;21.70;99.90;;;;;;5031373;28;20391;-27
2022/09/15 10:32:30;;;;;;;0.80;0.32;;;21.70;99.90;;;;;;5033933;28;20033;-27
2022/09/15 10:34:59;;;;;;;1.90;0.38;;;21.70;99.90;;;;;;5035007;28;20028;-27
2022/09/15 10:37:31;;;;;;;0.60;0.40;;;21.70;99.90;;;;;;5035160;28;20017;-27
2022/09/15 10:39:59;;;;;;;2.40;0.32;;;21.70;99.90;;;;;;5034995;28;20022;-27
2022/09/15 10:42:49;;;;;;;0.50;0.30;;;21.70;99.90;;;;;;5035074;28;20025;-27
2022/09/15 10:45:25;;;;;;;0.50;0.40;;;21.70;99.90;;;;;;5034885;28;20025;-27
2022/09/15 10:48:07;;;;;;;1.13;0.50;;;21.70;99.90;;;;;;5034917;28;20108;-27
2022/09/15 10:50:48;;;;;;;0.60;0.40;;;21.60;99.90;;;;;;5034777;28;20140;-27
2022/09/15 10:53:32;;;;;;;0.45;0.30;;;21.60;99.90;;;;;;5034961;28;20028;-27
2022/09/15 10:56:05;;;;;;;0.52;0.30;;;21.60;99.90;;;;;;5034855;28;20076;-27
2022/09/15 10:58:39;;;;;;;0.30;0.20;;;21.60;99.90;;;;;;5034692;28;20064;-27
2022/09/15 11:01:26;;;;;;;0.30;0.20;;;21.60;99.90;;;;;;5034704;28;20505;-27
2022/09/15 11:04:01;;;;;;;0.77;0.38;;;21.60;99.90;;;;;;5034697;28;20371;-27
2022/09/15 11:06:49;;;;;;;;;;;21.60;99.90;;;;;;5035094;28;20109;-27
2022/09/15 11:09:32;;;;;;;1.08;0.40;;;21.60;99.90;;;;;;5034491;28;20035;-27
2022/09/15 11:12:16;;;;;;;0.80;0.30;;;21.50;99.90;;;;;;5034542;28;20021;-27
2022/09/15 11:15:05;;;;;;;0.68;0.40;;;21.60;99.90;;;;;;5034231;28;20029;-27
2022/09/15 11:17:53;;;;;;;0.70;0.30;;;21.60;99.90;;;;;;5028839;28;20044;-27
2022/09/15 11:20:28;;;;;;;1.00;0.35;;;21.50;99.90;;;;;;5034283;28;20030;-27
2022/09/15 11:23:02;;;;;;;0.40;0.30;;;21.60;99.90;;;;;;5034452;28;20053;-27
2022/09/15 11:25:32;;;;;;;0.28;0.20;;;21.60;99.90;;;;;;5035484;28;20394;-26
2022/09/15 11:28:20;;;;;;;0.60;0.30;;;21.60;99.90;;;;;;5034906;28;20028;-26
2022/09/15 11:31:34;;;;;;;0.85;0.30;;;21.60;99.90;;;;;;5034406;28;20609;-26
2022/09/15 11:34:29;;;;;;;0.28;0.20;;;21.60;99.90;;;;;;5019446;28;20399;-26
2022/09/15 11:36:55;;;;;;;;;;;21.60;99.90;;;;;;5034527;28;20044;-26
2022/09/15 11:39:29;;;;;;;0.40;0.30;;;21.60;99.90;;;;;;5033853;28;20370;-26
2022/09/15 11:42:05;;;;;;;0.57;0.30;;;21.60;99.90;;;;;;5033725;28;20139;-26
2022/09/15 11:44:37;;;;;;;0.60;0.30;;;21.60;99.90;;;;;;5034007;28;20036;-26
2022/09/15 11:47:19;;;;;;;0.50;0.30;;;21.60;99.90;;;;;;5033945;28;20030;-26
2022/09/15 11:50:15;;;;;;;0.65;0.45;;;21.60;99.90;;;;;;5033701;28;20025;-26
2022/09/15 11:53:04;;;;;;;0.63;0.20;;;21.60;99.90;;;;;;5033806;28;20068;-26
2022/09/15 11:55:44;;;;;;;1.73;0.40;;;21.60;99.90;;;;;;5033729;28;20566;-26
2022/09/15 11:58:19;;;;;;;0.68;0.30;;;21.60;99.90;;;;;;5033531;28;20375;-26
2022/09/15 12:01:11;;;;;;;1.02;0.30;;;21.60;99.90;;;;;;5033495;28;20022;-26
2022/09/15 12:03:55;;;;;;;3.42;1.13;;;21.60;99.90;;;;;;5033501;28;20506;-26
2022/09/15 12:07:02;;;;;;;2.58;1.17;;;21.50;99.90;;;;;;5033613;28;20164;-26
2022/09/15 12:09:28;;;;;;;2.70;1.23;;;21.20;99.90;;;;;;4991548;28;20038;-26
2022/09/15 12:12:01;;;;;;;1.75;0.90;;;21.10;99.90;;;;;;5007594;28;20021;-26
2022/09/15 12:14:37;;;;;;;1.95;0.80;;;21.20;99.90;;;;;;5031805;28;20033;-26
2022/09/15 12:17:05;;;;;;;2.42;0.98;;;21.30;99.90;;;;;;5057936;22;20079;-24
2022/09/15 12:20:06;;;;;;;1.75;0.90;;;21.30;99.90;;;;;;5033077;28;20060;-24
2022/09/15 12:22:41;;;;;;;4.47;0.90;;;21.40;99.90;;;;;;5033344;28;20468;-24
2022/09/15 12:25:17;;;;;;;1.25;0.65;;;21.40;99.90;;;;;;5033125;28;20029;-24
2022/09/15 12:27:43;;;;;;;1.88;0.70;;;21.50;99.90;;;;;;5032985;28;20021;-24
2022/09/15 12:30:40;;;;;;;2.22;0.82;;;21.50;99.90;;;;;;5032911;28;20026;-24
2022/09/15 12:33:43;;;;;;;0.82;0.63;;;21.50;99.90;;;;;;5033052;28;20474;-24
2022/09/15 12:36:57;;;;;;;2.15;1.10;;;21.50;99.90;;;;;;5032679;28;20079;-24
2022/09/15 12:39:38;;;;;;;2.05;0.80;;;21.50;99.90;;;;;;5015174;28;20380;-24
2022/09/15 12:42:30;;;;;;;2.22;0.90;;;21.50;99.90;;;;;;5032752;28;20025;-24
2022/09/15 12:45:24;;;;;;;1.00;0.60;;;21.50;99.90;;;;;;5032756;28;20029;-23
2022/09/15 12:48:00;;;;;;;2.15;0.70;;;21.50;99.90;;;;;;5032875;28;20017;-24
2022/09/15 12:50:33;;;;;;;1.42;0.77;;;21.50;99.90;;;;;;5032505;28;20014;-24
2022/09/15 12:53:21;;;;;;;1.98;0.60;;;21.50;99.90;;;;;;5015129;28;20041;-24
2022/09/15 12:55:54;;;;;;;1.40;0.80;;;21.50;99.90;;;;;;5031346;28;20521;-24
2022/09/15 12:58:44;;;;;;;1.40;0.90;;;21.50;99.90;;;;;;5032532;28;20044;-24
2022/09/15 13:01:25;;;;;;;2.17;0.85;;;21.50;99.90;;;;;;5020779;28;20144;-24
2022/09/15 13:03:54;;;;;;;1.95;0.90;;;21.50;99.90;;;;;;5032464;28;20497;-24
2022/09/15 13:06:26;;;;;;;1.90;1.00;;;21.50;99.90;;;;;;5032337;28;20036;-24
2022/09/15 13:09:24;;;;;;;2.05;0.90;;;21.50;99.90;;;;;;5032182;28;20032;-24
2022/09/15 13:11:53;;;;;;;1.30;0.80;;;21.50;99.90;;;;;;5032405;28;20496;-24
2022/09/15 13:14:33;;;;;;;3.63;0.80;;;21.50;99.90;;;;;;5032586;28;20029;-24